Time;durP1;ratioP1;P1;durP2;ratioP2;P2;SDS_P1;SDS_P2;PMS_P1;PMS_P2;Temp;Humidity;BMP_temperature;BMP_pressure;BME280_temperature;BME280_humidity;BME280_pressure;Samples;Min_cycle;Max_cycle;Signal;HPM_P1;HPM_P2
2021/09/26 00:00:45;;;;;;;;;;;;;;;;;;10306793;28;19920;-54
2021/09/26 00:05:43;;;;;;;;;;;;;;;;;;10315980;28;20376;-55
2021/09/26 00:10:41;;;;;;;;;;;;;;;;;;10304924;28;19964;-56
2021/09/26 00:15:39;;;;;;;;;;;;;;;;;;10290800;28;19963;-57
2021/09/26 00:20:38;;;;;;;;;;;;;;;;;;10323183;28;20470;-55
2021/09/26 00:25:36;;;;;;;;;;;;;;;;;;10319071;28;20378;-57
2021/09/26 00:30:34;;;;;;;;;;;;;;;;;;10289559;28;19920;-55
2021/09/26 00:35:32;;;;;;;;;;;;;;;;;;10299886;28;19964;-55
2021/09/26 00:40:30;;;;;;;;;;;;;;;;;;10312297;28;19952;-54
2021/09/26 00:45:28;;;;;;;;;;;;;;;;;;10287445;28;20381;-55
2021/09/26 00:50:26;;;;;;;;;;;;;;;;;;10321568;28;19947;-53
2021/09/26 00:55:24;;;;;;;;;;;;;;;;;;10322155;28;19920;-52
2021/09/26 01:00:22;;;;;;;;;;;;;;;;;;10313385;28;19967;-56
2021/09/26 01:05:20;;;;;;;;;;;;;;;;;;10293671;28;20385;-54
2021/09/26 01:10:18;;;;;;;;;;;;;;;;;;10321420;28;20359;-55
2021/09/26 01:15:16;;;;;;;;;;;;;;;;;;10302336;28;19924;-53
2021/09/26 01:20:14;;;;;;;;;;;;;;;;;;10320459;28;19921;-54
2021/09/26 01:25:12;;;;;;;;;;;;;;;;;;10312929;28;20047;-54
2021/09/26 01:30:10;;;;;;;;;;;;;;;;;;10303311;28;19955;-55
2021/09/26 01:35:09;;;;;;;;;;;;;;;;;;10286533;28;19995;-56
2021/09/26 01:40:07;;;;;;;;;;;;;;;;;;10296562;28;19921;-52
2021/09/26 01:45:05;;;;;;;;;;;;;;;;;;10311170;28;20429;-53
2021/09/26 01:50:03;;;;;;;;;;;;;;;;;;10294315;28;20301;-55
2021/09/26 01:55:01;;;;;;;;;;;;;;;;;;10283896;28;19952;-54
2021/09/26 01:59:59;;;;;;;;;;;;;;;;;;10282069;28;19971;-56
2021/09/26 02:04:59;;;;;;;;;;;;;;;;;;10290126;28;19971;-54
2021/09/26 02:09:57;;;;;;;;;;;;;;;;;;10318879;28;20285;-54
2021/09/26 02:14:55;;;;;;;;;;;;;;;;;;10306724;28;20230;-56
2021/09/26 02:19:54;;;;;;;;;;;;;;;;;;10294816;28;19944;-54
2021/09/26 02:24:52;;;;;;;;;;;;;;;;;;10280080;28;20345;-52
2021/09/26 02:29:50;;;;;;;;;;;;;;;;;;10309563;28;20328;-55
2021/09/26 02:34:48;;;;;;;;;;;;;;;;;;10317561;28;19960;-56
2021/09/26 02:39:46;;;;;;;;;;;;;;;;;;10317512;28;20428;-55
2021/09/26 02:44:44;;;;;;;;;;;;;;;;;;10316815;28;20420;-55
2021/09/26 02:49:42;;;;;;;;;;;;;;;;;;10312742;28;19928;-56
2021/09/26 02:54:40;;;;;;;;;;;;;;;;;;10276428;28;19920;-55
2021/09/26 02:59:38;;;;;;;;;;;;;;;;;;10276932;28;19998;-56
2021/09/26 03:04:36;;;;;;;;;;;;;;;;;;10275554;28;19987;-55
2021/09/26 03:09:34;;;;;;;;;;;;;;;;;;10316334;28;19920;-54
2021/09/26 03:14:32;;;;;;;;;;;;;;;;;;10308207;28;19945;-54
2021/09/26 03:19:30;;;;;;;;;;;;;;;;;;10282933;28;20398;-54
2021/09/26 03:24:28;;;;;;;;;;;;;;;;;;10314619;28;19931;-55
2021/09/26 03:29:26;;;;;;;;;;;;;;;;;;10316119;28;20364;-54
2021/09/26 03:34:24;;;;;;;;;;;;;;;;;;10314583;28;19955;-53
2021/09/26 03:39:22;;;;;;;;;;;;;;;;;;10288674;28;19960;-54
2021/09/26 03:44:20;;;;;;;;;;;;;;;;;;10312362;28;20455;-51
2021/09/26 03:49:19;;;;;;;;;;;;;;;;;;10315830;28;19955;-56
2021/09/26 03:54:17;;;;;;;;;;;;;;;;;;10315601;28;20317;-54
2021/09/26 03:59:15;;;;;;;;;;;;;;;;;;10314754;28;19971;-52
2021/09/26 04:04:13;;;;;;;;;;;;;;;;;;10316663;28;20273;-54
2021/09/26 04:09:11;;;;;;;;;;;;;;;;;;10289482;28;19982;-54
2021/09/26 04:14:09;;;;;;;;;;;;;;;;;;10296046;28;20338;-57
2021/09/26 04:19:07;;;;;;;;;;;;;;;;;;10312388;28;20313;-56
2021/09/26 04:24:05;;;;;;;;;;;;;;;;;;10305272;28;20364;-53
2021/09/26 04:29:03;;;;;;;;;;;;;;;;;;10283777;28;19952;-52
2021/09/26 04:34:01;;;;;;;;;;;;;;;;;;10310630;28;19920;-55
2021/09/26 04:38:59;;;;;;;;;;;;;;;;;;10305758;28;19920;-53
2021/09/26 04:43:57;;;;;;;;;;;;;;;;;;10278119;28;19943;-54
2021/09/26 04:48:55;;;;;;;;;;;;;;;;;;10312944;28;19963;-54
2021/09/26 04:53:53;;;;;;;;;;;;;;;;;;10322542;28;19920;-56
2021/09/26 04:58:51;;;;;;;;;;;;;;;;;;10321190;28;19932;-57
2021/09/26 05:03:49;;;;;;;;;;;;;;;;;;10302401;28;19967;-55
2021/09/26 05:08:47;;;;;;;;;;;;;;;;;;10287497;28;20191;-56
2021/09/26 05:13:45;;;;;;;;;;;;;;;;;;10285359;28;19955;-55
2021/09/26 05:18:43;;;;;;;;;;;;;;;;;;10291381;28;19962;-53
2021/09/26 05:23:41;;;;;;;;;;;;;;;;;;10309240;28;19959;-55
2021/09/26 05:28:39;;;;;;;;;;;;;;;;;;10289816;28;19970;-51
2021/09/26 05:33:37;;;;;;;;;;;;;;;;;;10309870;28;19925;-52
2021/09/26 05:38:35;;;;;;;;;;;;;;;;;;10317783;28;19921;-54
2021/09/26 05:43:33;;;;;;;;;;;;;;;;;;10319458;28;19951;-55
2021/09/26 05:48:31;;;;;;;;;;;;;;;;;;10320185;28;19960;-54
2021/09/26 05:53:29;;;;;;;;;;;;;;;;;;10318641;28;19951;-51
2021/09/26 05:58:27;;;;;;;;;;;;;;;;;;10318702;28;19975;-54
2021/09/26 06:03:25;;;;;;;;;;;;;;;;;;10318036;28;19921;-55
2021/09/26 06:08:27;;;;;;;;;;;;;;;;;;10319691;28;20378;-56
2021/09/26 06:13:25;;;;;;;;;;;;;;;;;;10319460;28;19943;-53
2021/09/26 06:18:23;;;;;;;;;;;;;;;;;;10319015;28;19955;-53
2021/09/26 06:23:21;;;;;;;;;;;;;;;;;;10318472;28;19960;-54
2021/09/26 06:28:19;;;;;;;;;;;;;;;;;;10312524;28;20397;-54
2021/09/26 06:33:17;;;;;;;;;;;;;;;;;;10311158;28;20411;-54
2021/09/26 06:38:15;;;;;;;;;;;;;;;;;;10314984;28;19956;-55
2021/09/26 06:43:13;;;;;;;;;;;;;;;;;;10315226;28;19962;-55
2021/09/26 06:48:11;;;;;;;;;;;;;;;;;;10314536;28;19975;-54
2021/09/26 06:53:09;;;;;;;;;;;;;;;;;;10315597;28;20401;-55
2021/09/26 06:58:07;;;;;;;;;;;;;;;;;;10317934;28;20285;-56
2021/09/26 07:03:07;;;;;;;;;;;;;;;;;;10318456;28;19920;-55
2021/09/26 07:08:05;;;;;;;;;;;;;;;;;;10318357;28;20460;-57
2021/09/26 07:13:03;;;;;;;;;;;;;;;;;;10317991;28;20270;-56
2021/09/26 07:18:01;;;;;;;;;;;;;;;;;;10318024;28;20373;-55
2021/09/26 07:22:59;;;;;;;;;;;;;;;;;;10317920;28;20325;-57
2021/09/26 07:27:57;;;;;;;;;;;;;;;;;;10317168;28;20385;-55
2021/09/26 07:32:55;;;;;;;;;;;;;;;;;;10317644;28;19927;-55
2021/09/26 07:37:53;;;;;;;;;;;;;;;;;;10317208;28;19959;-56
2021/09/26 07:42:51;;;;;;;;;;;;;;;;;;10316735;28;19931;-54
2021/09/26 07:47:49;;;;;;;;;;;;;;;;;;10317088;28;20002;-56
2021/09/26 07:52:47;;;;;;;;;;;;;;;;;;10316403;28;19951;-55
2021/09/26 07:57:45;;;;;;;;;;;;;;;;;;10316253;28;19920;-56
2021/09/26 08:02:43;;;;;;;;;;;;;;;;;;10315428;28;19921;-54
2021/09/26 08:07:41;;;;;;;;;;;;;;;;;;10315863;28;19967;-54
2021/09/26 08:12:39;;;;;;;;;;;;;;;;;;10316681;28;20305;-56
2021/09/26 08:17:37;;;;;;;;;;;;;;;;;;10316117;28;19921;-56
2021/09/26 08:22:35;;;;;;;;;;;;;;;;;;10318994;28;19921;-55
2021/09/26 08:27:33;;;;;;;;;;;;;;;;;;10324571;28;20410;-55
2021/09/26 08:32:31;;;;;;;;;;;;;;;;;;10323857;28;19924;-55
2021/09/26 08:37:29;;;;;;;;;;;;;;;;;;10323428;28;20496;-54
2021/09/26 08:42:27;;;;;;;;;;;;;;;;;;10322958;28;20301;-56
2021/09/26 08:47:25;;;;;;;;;;;;;;;;;;10318780;28;19970;-56
2021/09/26 08:52:23;;;;;;;;;;;;;;;;;;10321513;28;19921;-55
2021/09/26 08:57:22;;;;;;;;;;;;;;;;;;10321396;28;20316;-55
2021/09/26 09:02:20;;;;;;;;;;;;;;;;;;10317219;28;19959;-58
2021/09/26 09:07:18;;;;;;;;;;;;;;;;;;10322115;28;19966;-56
2021/09/26 09:12:16;;;;;;;;;;;;;;;;;;10322367;28;19931;-56
2021/09/26 09:17:14;;;;;;;;;;;;;;;;;;10319950;28;19959;-58
2021/09/26 09:22:17;;;;;;;;;;;;;;;;;;10320672;28;20401;-57
2021/09/26 09:27:15;;;;;;;;;;;;;;;;;;10319929;28;20394;-56
2021/09/26 09:32:13;;;;;;;;;;;;;;;;;;10321679;28;20030;-56
2021/09/26 09:37:11;;;;;;;;;;;;;;;;;;10321159;28;19924;-55
2021/09/26 09:42:09;;;;;;;;;;;;;;;;;;10303316;28;19928;-56
2021/09/26 09:47:07;;;;;;;;;;;;;;;;;;10319715;28;19960;-54
2021/09/26 09:52:05;;;;;;;;;;;;;;;;;;10320138;28;19979;-56
2021/09/26 09:57:03;;;;;;;;;;;;;;;;;;10319171;28;19979;-53
2021/09/26 10:02:01;;;;;;;;;;;;;;;;;;10320375;28;20084;-56
2021/09/26 10:06:59;;;;;;;;;;;;;;;;;;10319590;28;19990;-56
2021/09/26 10:11:57;;;;;;;;;;;;;;;;;;10319738;28;20384;-57
2021/09/26 10:16:55;;;;;;;;;;;;;;;;;;10319517;28;20008;-56
2021/09/26 10:21:53;;;;;;;;;;;;;;;;;;10319832;28;20014;-57
2021/09/26 10:26:53;;;;;;;;;;;;;;;;;;10317926;28;19971;-57
2021/09/26 10:31:51;;;;;;;;;;;;;;;;;;10301615;28;19939;-57
2021/09/26 10:36:49;;;;;;;;;;;;;;;;;;10317802;28;19966;-56
2021/09/26 10:41:47;;;;;;;;;;;;;;;;;;10318183;28;19920;-57
2021/09/26 10:46:45;;;;;;;;;;;;;;;;;;10316551;28;19951;-55
2021/09/26 10:51:43;;;;;;;;;;;;;;;;;;10318810;28;19920;-56
2021/09/26 10:56:41;;;;;;;;;;;;;;;;;;10317363;28;19956;-57
2021/09/26 11:01:39;;;;;;;;;;;;;;;;;;10317550;28;19925;-57
2021/09/26 11:06:38;;;;;;;;;;;;;;;;;;10299164;28;19931;-57
2021/09/26 11:11:36;;;;;;;;;;;;;;;;;;10318037;28;20403;-57
2021/09/26 11:16:35;;;;;;;;;;;;;;;;;;10298673;28;19920;-57
2021/09/26 11:21:33;;;;;;;;;;;;;;;;;;10317287;28;19947;-57
2021/09/26 11:26:31;;;;;;;;;;;;;;;;;;10317086;28;19970;-56
2021/09/26 11:31:29;;;;;;;;;;;;;;;;;;10317053;28;19966;-57
2021/09/26 11:36:27;;;;;;;;;;;;;;;;;;10316752;28;19952;-57
2021/09/26 11:41:25;;;;;;;;;;;;;;;;;;10316230;28;19928;-57
2021/09/26 11:46:23;;;;;;;;;;;;;;;;;;10315703;28;19927;-58
2021/09/26 11:51:21;;;;;;;;;;;;;;;;;;10316326;28;19952;-55
2021/09/26 11:56:19;;;;;;;;;;;;;;;;;;10319181;28;20494;-57
2021/09/26 12:01:17;;;;;;;;;;;;;;;;;;10330006;28;20441;-56
2021/09/26 12:06:15;;;;;;;;;;;;;;;;;;10329090;28;19927;-57
2021/09/26 12:11:13;;;;;;;;;;;;;;;;;;10329643;28;19959;-57
2021/09/26 12:16:11;;;;;;;;;;;;;;;;;;10329297;28;19931;-57
2021/09/26 12:21:09;;;;;;;;;;;;;;;;;;10328622;28;19920;-58
2021/09/26 12:26:07;;;;;;;;;;;;;;;;;;10329321;28;19920;-57
2021/09/26 12:31:05;;;;;;;;;;;;;;;;;;10329072;28;20353;-57
2021/09/26 12:36:03;;;;;;;;;;;;;;;;;;10328798;28;19944;-57
2021/09/26 12:41:01;;;;;;;;;;;;;;;;;;10329216;28;19920;-56
2021/09/26 12:46:01;;;;;;;;;;;;;;;;;;10328928;28;19920;-56
2021/09/26 12:50:59;;;;;;;;;;;;;;;;;;10327963;28;19960;-58
2021/09/26 12:55:57;;;;;;;;;;;;;;;;;;10328668;28;19921;-57
2021/09/26 13:00:55;;;;;;;;;;;;;;;;;;10328766;28;19974;-57
2021/09/26 13:05:53;;;;;;;;;;;;;;;;;;10328321;28;19948;-56
2021/09/26 13:10:51;;;;;;;;;;;;;;;;;;10322178;28;19963;-57
2021/09/26 13:15:49;;;;;;;;;;;;;;;;;;10321712;28;19920;-56
2021/09/26 13:20:47;;;;;;;;;;;;;;;;;;10319918;28;19970;-56
2021/09/26 13:25:45;;;;;;;;;;;;;;;;;;10320535;28;19928;-54
2021/09/26 13:30:43;;;;;;;;;;;;;;;;;;10320708;28;19963;-56
2021/09/26 13:35:41;;;;;;;;;;;;;;;;;;10320360;28;19927;-57
2021/09/26 13:40:41;;;;;;;;;;;;;;;;;;10320845;28;19927;-57
2021/09/26 13:45:39;;;;;;;;;;;;;;;;;;10320529;28;19962;-58
2021/09/26 13:50:37;;;;;;;;;;;;;;;;;;10319529;28;19952;-57
2021/09/26 13:55:35;;;;;;;;;;;;;;;;;;10320079;28;19924;-56
2021/09/26 14:00:33;;;;;;;;;;;;;;;;;;10320112;28;19935;-57
2021/09/26 14:05:31;;;;;;;;;;;;;;;;;;10319849;28;20217;-57
2021/09/26 14:10:29;;;;;;;;;;;;;;;;;;10319453;28;19967;-57
2021/09/26 14:15:27;;;;;;;;;;;;;;;;;;10319031;28;19924;-57
2021/09/26 14:20:25;;;;;;;;;;;;;;;;;;10317943;28;19958;-57
2021/09/26 14:25:23;;;;;;;;;;;;;;;;;;10318167;28;19952;-58
2021/09/26 14:30:21;;;;;;;;;;;;;;;;;;10318459;28;19960;-57
2021/09/26 14:35:19;;;;;;;;;;;;;;;;;;10318455;28;19932;-57
2021/09/26 14:40:17;;;;;;;;;;;;;;;;;;10318156;28;19931;-57
2021/09/26 14:45:15;;;;;;;;;;;;;;;;;;10318062;28;19959;-57
2021/09/26 14:50:13;;;;;;;;;;;;;;;;;;10317874;28;19974;-56
2021/09/26 14:55:11;;;;;;;;;;;;;;;;;;10317864;28;19948;-58
2021/09/26 15:00:09;;;;;;;;;;;;;;;;;;10317374;28;20357;-57
2021/09/26 15:05:07;;;;;;;;;;;;;;;;;;10317615;28;19978;-58
2021/09/26 15:10:05;;;;;;;;;;;;;;;;;;10317409;28;19986;-57
2021/09/26 15:15:03;;;;;;;;;;;;;;;;;;10316022;28;19924;-56
2021/09/26 15:20:01;;;;;;;;;;;;;;;;;;10316593;28;19955;-58
2021/09/26 15:24:59;;;;;;;;;;;;;;;;;;10316087;28;19920;-58
2021/09/26 15:29:57;;;;;;;;;;;;;;;;;;10315762;28;19955;-57
2021/09/26 15:34:55;;;;;;;;;;;;;;;;;;10315891;28;19968;-57
2021/09/26 15:39:53;;;;;;;;;;;;;;;;;;10316293;28;19933;-56
2021/09/26 15:44:52;;;;;;;;;;;;;;;;;;10316138;28;19920;-57
2021/09/26 15:49:50;;;;;;;;;;;;;;;;;;10315972;28;19955;-57
2021/09/26 15:54:48;;;;;;;;;;;;;;;;;;10315964;28;19920;-56
2021/09/26 15:59:46;;;;;;;;;;;;;;;;;;10316003;28;20401;-56
2021/09/26 16:04:44;;;;;;;;;;;;;;;;;;10315879;28;20365;-57
2021/09/26 16:09:42;;;;;;;;;;;;;;;;;;10298945;28;19959;-56
2021/09/26 16:14:40;;;;;;;;;;;;;;;;;;10291792;28;19961;-54
2021/09/26 16:19:38;;;;;;;;;;;;;;;;;;10289014;28;19956;-56
2021/09/26 16:24:36;;;;;;;;;;;;;;;;;;10283740;28;20340;-55
2021/09/26 16:29:33;;;;;;;;;;;;;;;;;;10275357;28;20459;-55
2021/09/26 16:34:32;;;;;;;;;;;;;;;;;;10274406;28;19920;-54
2021/09/26 16:39:30;;;;;;;;;;;;;;;;;;10274357;28;19920;-55
2021/09/26 16:44:28;;;;;;;;;;;;;;;;;;10284279;28;19956;-55
2021/09/26 16:49:26;;;;;;;;;;;;;;;;;;10291444;28;19968;-56
2021/09/26 16:54:24;;;;;;;;;;;;;;;;;;10304901;28;19963;-49
2021/09/26 16:59:25;;;;;;;;;;;;;;;;;;10298263;28;19971;-54
2021/09/26 17:04:23;;;;;;;;;;;;;;;;;;10290244;28;19963;-52
2021/09/26 17:09:21;;;;;;;;;;;;;;;;;;10320227;28;19971;-51
2021/09/26 17:14:19;;;;;;;;;;;;;;;;;;10320130;28;20412;-53
2021/09/26 17:19:17;;;;;;;;;;;;;;;;;;10318683;28;19924;-56
2021/09/26 17:24:15;;;;;;;;;;;;;;;;;;10321055;28;19947;-55
2021/09/26 17:29:15;;;;;;;;;;;;;;;;;;10308215;28;19952;-57
2021/09/26 17:34:13;;;;;;;;;;;;;;;;;;10314928;28;19961;-55
2021/09/26 17:39:11;;;;;;;;;;;;;;;;;;10299153;28;19967;-55
2021/09/26 17:44:09;;;;;;;;;;;;;;;;;;10300117;28;20404;-56
2021/09/26 17:49:07;;;;;;;;;;;;;;;;;;10298198;28;19962;-54
2021/09/26 17:54:10;;;;;;;;;;;;;;;;;;10299970;28;19964;-55
2021/09/26 17:59:08;;;;;;;;;;;;;;;;;;10298783;28;20397;-55
2021/09/26 18:04:06;;;;;;;;;;;;;;;;;;10305030;28;20372;-52
2021/09/26 18:09:04;;;;;;;;;;;;;;;;;;10304284;28;19958;-50
2021/09/26 18:14:02;;;;;;;;;;;;;;;;;;10303370;28;19963;-56
2021/09/26 18:19:02;;;;;;;;;;;;;;;;;;10307815;28;19959;-53
2021/09/26 18:24:00;;;;;;;;;;;;;;;;;;10319473;28;20058;-53
2021/09/26 18:28:58;;;;;;;;;;;;;;;;;;10318481;28;19963;-52
2021/09/26 18:33:56;;;;;;;;;;;;;;;;;;10316557;28;19963;-55
2021/09/26 18:38:55;;;;;;;;;;;;;;;;;;10318238;28;20026;-52
2021/09/26 18:43:53;;;;;;;;;;;;;;;;;;10318592;28;19920;-54
2021/09/26 18:48:51;;;;;;;;;;;;;;;;;;10314935;28;19967;-52
2021/09/26 18:53:49;;;;;;;;;;;;;;;;;;10318340;28;19970;-52
2021/09/26 18:58:49;;;;;;;;;;;;;;;;;;10318233;28;20389;-53
2021/09/26 19:03:47;;;;;;;;;;;;;;;;;;10315614;28;20366;-52
2021/09/26 19:08:45;;;;;;;;;;;;;;;;;;10314062;28;19962;-53
2021/09/26 19:13:43;;;;;;;;;;;;;;;;;;10316573;28;19955;-53
2021/09/26 19:18:41;;;;;;;;;;;;;;;;;;10316408;28;19924;-54
2021/09/26 19:23:39;;;;;;;;;;;;;;;;;;10314591;28;19956;-52
2021/09/26 19:28:39;;;;;;;;;;;;;;;;;;10313809;28;19927;-54
2021/09/26 19:33:37;;;;;;;;;;;;;;;;;;10317043;28;19952;-56
2021/09/26 19:38:35;;;;;;;;;;;;;;;;;;10316620;28;19959;-54
2021/09/26 19:43:33;;;;;;;;;;;;;;;;;;10316029;28;20324;-53
2021/09/26 19:48:31;;;;;;;;;;;;;;;;;;10315636;28;19959;-53
2021/09/26 19:53:29;;;;;;;;;;;;;;;;;;10315082;28;19960;-55
2021/09/26 19:58:27;;;;;;;;;;;;;;;;;;10314605;28;19927;-55
2021/09/26 20:03:25;;;;;;;;;;;;;;;;;;10315470;28;19959;-55
2021/09/26 20:08:23;;;;;;;;;;;;;;;;;;10314138;28;19967;-53
2021/09/26 20:13:21;;;;;;;;;;;;;;;;;;10315438;28;20148;-51
2021/09/26 20:18:19;;;;;;;;;;;;;;;;;;10318626;28;20297;-55
2021/09/26 20:23:17;;;;;;;;;;;;;;;;;;10322911;28;19924;-54
2021/09/26 20:28:15;;;;;;;;;;;;;;;;;;10322919;28;19954;-57
2021/09/26 20:33:13;;;;;;;;;;;;;;;;;;10321756;28;19960;-55
2021/09/26 20:38:11;;;;;;;;;;;;;;;;;;10323491;28;19928;-55
2021/09/26 20:43:09;;;;;;;;;;;;;;;;;;10322807;28;19964;-55
2021/09/26 20:48:07;;;;;;;;;;;;;;;;;;10323077;28;19924;-54
2021/09/26 20:53:05;;;;;;;;;;;;;;;;;;10322715;28;20385;-55
2021/09/26 20:58:03;;;;;;;;;;;;;;;;;;10321903;28;19978;-55
2021/09/26 21:03:01;;;;;;;;;;;;;;;;;;10322205;28;19924;-56
2021/09/26 21:07:59;;;;;;;;;;;;;;;;;;10321806;28;19927;-53
2021/09/26 21:12:57;;;;;;;;;;;;;;;;;;10322178;28;19967;-54
2021/09/26 21:17:55;;;;;;;;;;;;;;;;;;10322872;28;19927;-55
2021/09/26 21:22:53;;;;;;;;;;;;;;;;;;10303879;28;19928;-55
2021/09/26 21:27:51;;;;;;;;;;;;;;;;;;10321858;28;19947;-54
2021/09/26 21:32:49;;;;;;;;;;;;;;;;;;10320330;28;19979;-54
2021/09/26 21:37:47;;;;;;;;;;;;;;;;;;10321445;28;19928;-54
2021/09/26 21:42:45;;;;;;;;;;;;;;;;;;10321617;28;19951;-53
2021/09/26 21:47:43;;;;;;;;;;;;;;;;;;10321037;28;20285;-54
2021/09/26 21:52:41;;;;;;;;;;;;;;;;;;10301895;28;20376;-56
2021/09/26 21:57:39;;;;;;;;;;;;;;;;;;10320583;28;19924;-55
2021/09/26 22:02:37;;;;;;;;;;;;;;;;;;10320536;28;19959;-56
2021/09/26 22:07:35;;;;;;;;;;;;;;;;;;10320522;28;20389;-57
2021/09/26 22:12:33;;;;;;;;;;;;;;;;;;10320676;28;19963;-55
2021/09/26 22:17:31;;;;;;;;;;;;;;;;;;10320072;28;19931;-55
2021/09/26 22:22:29;;;;;;;;;;;;;;;;;;10320407;28;19928;-54
2021/09/26 22:27:27;;;;;;;;;;;;;;;;;;10320211;28;19920;-55
2021/09/26 22:32:25;;;;;;;;;;;;;;;;;;10319323;28;19959;-57
2021/09/26 22:37:23;;;;;;;;;;;;;;;;;;10319621;28;19950;-55
2021/09/26 22:42:23;;;;;;;;;;;;;;;;;;10317913;28;19931;-54
2021/09/26 22:47:21;;;;;;;;;;;;;;;;;;10318989;28;20356;-55
2021/09/26 22:52:19;;;;;;;;;;;;;;;;;;10318020;28;20408;-55
2021/09/26 22:57:17;;;;;;;;;;;;;;;;;;10318346;28;19931;-55
2021/09/26 23:02:15;;;;;;;;;;;;;;;;;;10318732;28;19921;-52
2021/09/26 23:07:13;;;;;;;;;;;;;;;;;;10317783;28;20388;-56
2021/09/26 23:12:11;;;;;;;;;;;;;;;;;;10318312;28;20350;-56
2021/09/26 23:17:09;;;;;;;;;;;;;;;;;;10318699;28;20381;-54
2021/09/26 23:22:07;;;;;;;;;;;;;;;;;;10317361;28;19927;-55
2021/09/26 23:27:05;;;;;;;;;;;;;;;;;;10317756;28;19920;-55
2021/09/26 23:32:03;;;;;;;;;;;;;;;;;;10317538;28;19964;-54
2021/09/26 23:37:01;;;;;;;;;;;;;;;;;;10317479;28;19924;-54
2021/09/26 23:41:59;;;;;;;;;;;;;;;;;;10317469;28;19927;-55
2021/09/26 23:46:57;;;;;;;;;;;;;;;;;;10316934;28;19928;-55
2021/09/26 23:51:55;;;;;;;;;;;;;;;;;;10316326;28;19967;-56
2021/09/26 23:56:53;;;;;;;;;;;;;;;;;;10316706;28;20277;-56
